Time;durP1;ratioP1;P1;durP2;ratioP2;P2;SDS_P1;SDS_P2;PMS_P1;PMS_P2;Temp;Humidity;BMP_temperature;BMP_pressure;BME280_temperature;BME280_humidity;BME280_pressure;Samples;Min_cycle;Max_cycle;Signal;HPM_P1;HPM_P2
2021/04/10 00:00:09;;;;;;;19.70;17.73;;;12.10;78.50;;;;;;5034649;28;20802;-68
2021/04/10 00:02:35;;;;;;;22.93;18.97;;;12.10;78.90;;;;;;5034932;28;20458;-67
2021/04/10 00:05:05;;;;;;;21.73;18.63;;;12.10;79.30;;;;;;5035283;28;20443;-67
2021/04/10 00:07:31;;;;;;;20.60;17.83;;;12.10;79.40;;;;;;5034769;28;20442;-67
2021/04/10 00:09:57;;;;;;;19.90;17.40;;;12.10;79.30;;;;;;5034058;28;20552;-68
2021/04/10 00:12:24;;;;;;;23.53;17.73;;;12.10;79.00;;;;;;5034484;28;20435;-68
2021/04/10 00:14:50;;;;;;;19.03;16.90;;;12.10;79.10;;;;;;5034419;28;20504;-68
2021/04/10 00:17:16;;;;;;;20.27;18.10;;;12.10;79.20;;;;;;5034277;28;20454;-68
2021/04/10 00:19:43;;;;;;;19.50;17.43;;;12.10;79.30;;;;;;5033882;28;20795;-68
2021/04/10 00:22:10;;;;;;;20.50;18.40;;;12.10;79.40;;;;;;5034505;28;20431;-68
2021/04/10 00:24:37;;;;;;;22.70;18.40;;;12.00;79.60;;;;;;5034404;28;20449;-68
2021/04/10 00:27:03;;;;;;;21.23;18.37;;;12.00;80.10;;;;;;5034208;28;20434;-68
2021/04/10 00:29:29;;;;;;;21.37;17.20;;;12.00;80.00;;;;;;5033936;28;20544;-69
2021/04/10 00:31:56;;;;;;;20.50;18.30;;;12.00;80.30;;;;;;5034015;28;20450;-68
2021/04/10 00:34:22;;;;;;;21.87;17.57;;;11.70;80.80;;;;;;5034065;28;20430;-68
2021/04/10 00:36:48;;;;;;;23.93;19.93;;;11.70;81.60;;;;;;5033688;28;20975;-68
2021/04/10 00:39:15;;;;;;;20.40;17.50;;;11.60;82.10;;;;;;5033690;28;20442;-68
2021/04/10 00:41:41;;;;;;;20.70;18.50;;;11.50;82.00;;;;;;5033856;28;20482;-68
2021/04/10 00:44:07;;;;;;;21.77;18.63;;;11.40;82.60;;;;;;5033865;28;20446;-68
2021/04/10 00:46:34;;;;;;;24.13;17.60;;;11.40;83.20;;;;;;5033848;28;20446;-68
2021/04/10 00:49:00;;;;;;;19.27;17.30;;;11.40;83.50;;;;;;5033702;28;20486;-68
2021/04/10 00:51:26;;;;;;;21.47;19.33;;;11.40;83.30;;;;;;5033468;28;20463;-68
2021/04/10 00:53:53;;;;;;;24.33;19.50;;;11.50;83.60;;;;;;5033837;28;20454;-68
2021/04/10 00:56:21;;;;;;;19.40;17.37;;;11.50;83.90;;;;;;5033683;28;20455;-68
2021/04/10 00:58:47;;;;;;;21.90;19.10;;;11.50;84.20;;;;;;5033626;28;20442;-68
2021/04/10 01:01:13;;;;;;;18.73;16.73;;;11.50;84.20;;;;;;5033595;28;20462;-68
2021/04/10 01:03:39;;;;;;;21.77;19.30;;;11.50;84.00;;;;;;5033398;28;20483;-68
2021/04/10 01:06:06;;;;;;;21.73;19.47;;;11.60;83.50;;;;;;5033641;28;20442;-68
2021/04/10 01:08:32;;;;;;;22.03;19.33;;;11.60;83.30;;;;;;5033447;28;20482;-68
2021/04/10 01:11:08;;;;;;;19.13;17.23;;;11.60;83.60;;;;;;5033306;28;20482;-68
2021/04/10 01:13:46;;;;;;;23.67;19.10;;;11.70;84.10;;;;;;5033543;28;20434;-68
2021/04/10 01:16:16;;;;;;;20.20;17.80;;;11.70;84.10;;;;;;5033491;28;20439;-68
2021/04/10 01:18:51;;;;;;;19.43;16.90;;;11.70;83.80;;;;;;5033202;28;20434;-68
2021/04/10 01:21:29;;;;;;;21.20;18.17;;;11.70;83.70;;;;;;5033049;28;21000;-68
2021/04/10 01:24:28;;;;;;;21.97;17.73;;;11.70;83.70;;;;;;5033452;28;20438;-68
2021/04/10 01:27:18;;;;;;;23.80;17.90;;;11.70;83.50;;;;;;5033325;28;20454;-68
2021/04/10 01:29:50;;;;;;;20.27;16.37;;;11.80;83.20;;;;;;5032909;28;20884;-68
2021/04/10 01:32:18;;;;;;;19.37;17.37;;;11.80;83.20;;;;;;5033335;28;20457;-68
2021/04/10 01:34:48;;;;;;;24.57;18.43;;;11.80;83.10;;;;;;5033236;28;20458;-68
2021/04/10 01:37:18;;;;;;;18.97;17.00;;;11.80;83.00;;;;;;5032998;28;20492;-68
2021/04/10 01:39:47;;;;;;;24.27;15.80;;;11.70;82.90;;;;;;5032944;28;20478;-68
2021/04/10 01:42:19;;;;;;;19.20;16.30;;;11.70;82.90;;;;;;5033226;28;20446;-68
2021/04/10 01:44:47;;;;;;;18.10;16.20;;;11.70;82.70;;;;;;5032915;28;20931;-68
2021/04/10 01:47:16;;;;;;;20.10;16.97;;;11.70;82.80;;;;;;5033230;28;20454;-68
2021/04/10 01:49:43;;;;;;;18.00;16.20;;;11.70;82.90;;;;;;5032703;28;20999;-68
2021/04/10 01:52:12;;;;;;;17.70;15.90;;;11.70;83.10;;;;;;5033138;28;20458;-68
2021/04/10 01:54:39;;;;;;;17.07;15.37;;;11.70;83.20;;;;;;5032785;28;20955;-68
2021/04/10 01:57:07;;;;;;;18.80;16.40;;;11.70;82.70;;;;;;5032994;28;20446;-68
2021/04/10 01:59:35;;;;;;;19.90;17.80;;;11.70;82.60;;;;;;5032999;28;20453;-69
2021/04/10 02:02:04;;;;;;;19.23;17.03;;;11.60;82.70;;;;;;5032994;28;20453;-68
2021/04/10 02:04:34;;;;;;;18.40;16.60;;;11.60;82.80;;;;;;5033687;28;20956;-68
2021/04/10 02:07:01;;;;;;;16.87;15.17;;;11.60;82.90;;;;;;5036840;28;20430;-68
2021/04/10 02:09:31;;;;;;;18.10;16.30;;;11.60;83.10;;;;;;5036453;28;20516;-69
2021/04/10 02:11:58;;;;;;;19.77;17.17;;;11.60;83.00;;;;;;5036395;28;21003;-68
2021/04/10 02:14:25;;;;;;;17.33;15.63;;;11.50;82.90;;;;;;5036647;28;20787;-68
2021/04/10 02:16:52;;;;;;;17.30;15.50;;;11.50;83.00;;;;;;5036407;28;20458;-68
2021/04/10 02:19:19;;;;;;;18.20;16.30;;;11.50;82.80;;;;;;5036514;28;20791;-68
2021/04/10 02:21:46;;;;;;;18.47;16.50;;;11.50;82.70;;;;;;5036406;28;20654;-68
2021/04/10 02:24:13;;;;;;;17.57;15.77;;;11.50;82.70;;;;;;5036241;28;20483;-68
2021/04/10 02:26:39;;;;;;;18.73;16.70;;;11.40;82.50;;;;;;5036477;28;20438;-68
2021/04/10 02:29:06;;;;;;;17.57;15.77;;;11.40;82.30;;;;;;5036264;28;20488;-68
2021/04/10 02:31:37;;;;;;;17.40;15.57;;;11.40;82.00;;;;;;5036284;28;20466;-68
2021/04/10 02:34:09;;;;;;;17.27;15.47;;;11.40;81.60;;;;;;5036321;28;20485;-68
2021/04/10 02:36:39;;;;;;;16.67;15.00;;;11.40;81.80;;;;;;5036256;28;20862;-68
2021/04/10 02:39:06;;;;;;;18.70;16.80;;;11.30;81.90;;;;;;5036144;28;20787;-68
2021/04/10 02:41:34;;;;;;;18.30;16.40;;;11.30;81.90;;;;;;5036135;28;20833;-68
2021/04/10 02:44:05;;;;;;;15.10;13.60;;;11.30;81.90;;;;;;5036066;28;20446;-68
2021/04/10 02:46:39;;;;;;;13.77;12.33;;;11.20;81.40;;;;;;5035855;28;20435;-68
2021/04/10 02:49:07;;;;;;;14.97;13.53;;;11.20;81.00;;;;;;5035969;28;20886;-68
2021/04/10 02:51:40;;;;;;;13.27;11.97;;;11.20;81.00;;;;;;5035923;28;20472;-68
2021/04/10 02:54:08;;;;;;;12.67;11.37;;;11.10;80.90;;;;;;5035884;28;20443;-68
2021/04/10 02:56:38;;;;;;;15.00;13.53;;;11.00;80.40;;;;;;5035842;28;20525;-68
2021/04/10 02:59:07;;;;;;;13.40;12.20;;;11.00;80.40;;;;;;5036669;28;20604;-68
2021/04/10 03:01:34;;;;;;;10.63;9.63;;;11.00;80.10;;;;;;5035629;28;20524;-68
2021/04/10 03:04:01;;;;;;;13.43;11.37;;;10.90;79.90;;;;;;5035678;28;20462;-68
2021/04/10 03:06:30;;;;;;;13.50;12.10;;;10.90;79.90;;;;;;5035670;28;20856;-68
2021/04/10 03:08:58;;;;;;;12.00;10.83;;;10.90;79.90;;;;;;5035492;28;20486;-68
2021/04/10 03:11:25;;;;;;;11.10;10.20;;;10.80;79.50;;;;;;5035193;28;20481;-68
2021/04/10 03:13:52;;;;;;;12.73;10.50;;;10.80;79.40;;;;;;5035549;28;20446;-68
2021/04/10 03:16:20;;;;;;;12.00;10.40;;;10.70;79.10;;;;;;5035161;28;20457;-68
2021/04/10 03:18:49;;;;;;;11.50;10.50;;;10.70;79.10;;;;;;5035228;28;20453;-68
2021/04/10 03:21:16;;;;;;;11.67;10.57;;;10.70;79.50;;;;;;5035477;28;20874;-68
2021/04/10 03:23:42;;;;;;;10.33;9.33;;;10.70;79.70;;;;;;5035308;28;20458;-68
2021/04/10 03:26:09;;;;;;;10.33;9.40;;;10.60;79.70;;;;;;5035300;28;20446;-68
2021/04/10 03:28:37;;;;;;;11.27;10.17;;;10.60;80.00;;;;;;5035120;28;20486;-68
2021/04/10 03:31:04;;;;;;;11.60;10.00;;;10.60;80.10;;;;;;5035257;28;20469;-68
2021/04/10 03:33:32;;;;;;;11.73;10.63;;;10.60;80.20;;;;;;5034831;28;20447;-68
2021/04/10 03:36:00;;;;;;;12.37;11.27;;;10.50;80.20;;;;;;5034759;28;20940;-68
2021/04/10 03:38:27;;;;;;;13.97;11.97;;;10.50;80.20;;;;;;5035084;28;20449;-68
2021/04/10 03:40:54;;;;;;;11.20;10.20;;;10.50;80.50;;;;;;5034768;28;21041;-68
2021/04/10 03:43:21;;;;;;;11.67;10.60;;;10.60;80.60;;;;;;5035013;28;20441;-68
2021/04/10 03:45:47;;;;;;;10.87;9.77;;;10.50;80.20;;;;;;5035168;28;20446;-68
2021/04/10 03:48:13;;;;;;;10.23;9.23;;;10.50;80.30;;;;;;5034831;28;20450;-68
2021/04/10 03:50:40;;;;;;;9.47;8.70;;;10.50;80.40;;;;;;5034948;28;20495;-69
2021/04/10 03:53:06;;;;;;;9.10;8.30;;;10.50;80.30;;;;;;5035054;28;20446;-68
2021/04/10 03:55:33;;;;;;;8.93;8.13;;;10.40;79.80;;;;;;5034884;28;20450;-68
2021/04/10 03:58:00;;;;;;;8.83;8.03;;;10.40;79.70;;;;;;5034879;28;20447;-68
2021/04/10 04:00:27;;;;;;;8.90;8.00;;;10.30;79.70;;;;;;5034509;28;20854;-68
2021/04/10 04:02:54;;;;;;;7.93;7.27;;;10.30;79.70;;;;;;5034679;28;20456;-68
2021/04/10 04:05:20;;;;;;;7.70;7.00;;;10.20;79.70;;;;;;5034532;28;20450;-68
2021/04/10 04:07:46;;;;;;;7.80;7.30;;;10.20;80.00;;;;;;5034612;28;20512;-68
2021/04/10 04:10:13;;;;;;;6.90;6.40;;;10.20;80.10;;;;;;5034279;28;20503;-68
2021/04/10 04:12:39;;;;;;;7.93;7.33;;;10.10;80.00;;;;;;5034429;28;20447;-68
2021/04/10 04:15:07;;;;;;;8.27;7.57;;;10.10;79.70;;;;;;5034403;28;20823;-68
2021/04/10 04:17:34;;;;;;;7.27;6.67;;;10.10;80.80;;;;;;5034212;28;21005;-68
2021/04/10 04:20:00;;;;;;;7.57;6.87;;;10.10;80.20;;;;;;5034232;28;20465;-68
2021/04/10 04:22:27;;;;;;;7.40;6.80;;;10.10;80.20;;;;;;5034250;28;20466;-68
2021/04/10 04:24:53;;;;;;;10.57;9.57;;;10.10;80.40;;;;;;5034182;28;20447;-68
2021/04/10 04:27:20;;;;;;;10.57;9.30;;;10.10;81.00;;;;;;5033473;28;20450;-68
2021/04/10 04:29:46;;;;;;;9.30;8.50;;;10.10;81.60;;;;;;5034105;28;20481;-68
2021/04/10 04:32:12;;;;;;;11.47;10.27;;;10.10;82.10;;;;;;5034082;28;20481;-68
2021/04/10 04:34:39;;;;;;;11.67;10.13;;;10.10;82.10;;;;;;5034020;28;20447;-68
2021/04/10 04:37:06;;;;;;;11.20;10.20;;;10.10;82.50;;;;;;5034116;28;20461;-68
2021/04/10 04:39:32;;;;;;;11.73;10.57;;;10.10;83.10;;;;;;5033850;28;20975;-69
2021/04/10 04:42:00;;;;;;;13.33;12.03;;;10.10;83.30;;;;;;5034725;28;20464;-68
2021/04/10 04:44:26;;;;;;;14.10;12.77;;;10.10;83.50;;;;;;5033590;28;20798;-68
2021/04/10 04:46:52;;;;;;;13.77;12.37;;;10.10;84.30;;;;;;5033821;28;20442;-68
2021/04/10 04:49:18;;;;;;;11.63;10.53;;;10.10;83.00;;;;;;5033695;28;20477;-68
2021/04/10 04:51:46;;;;;;;13.73;12.37;;;10.10;83.10;;;;;;5033674;28;20466;-68
2021/04/10 04:54:12;;;;;;;12.87;11.70;;;10.10;83.50;;;;;;5033734;28;20454;-68
2021/04/10 04:56:38;;;;;;;14.03;12.70;;;10.10;83.40;;;;;;5033720;28;20473;-68
2021/04/10 04:59:04;;;;;;;11.77;10.60;;;10.10;83.30;;;;;;5033598;28;20446;-68
2021/04/10 05:01:31;;;;;;;11.90;10.70;;;10.10;83.20;;;;;;5033543;28;20485;-68
2021/04/10 05:03:57;;;;;;;12.90;11.80;;;10.10;82.90;;;;;;5033543;28;20465;-68
2021/04/10 05:06:23;;;;;;;12.40;11.20;;;10.10;82.80;;;;;;5033274;28;20524;-68
2021/04/10 05:08:50;;;;;;;13.17;11.90;;;10.10;83.00;;;;;;5033460;28;20524;-68
2021/04/10 05:11:16;;;;;;;12.53;11.37;;;10.10;83.30;;;;;;5033004;28;20493;-68
2021/04/10 05:13:43;;;;;;;12.97;11.67;;;10.10;83.50;;;;;;5033179;28;20926;-68
2021/04/10 05:16:09;;;;;;;12.03;10.93;;;10.10;83.40;;;;;;5033486;28;20508;-68
2021/04/10 05:18:35;;;;;;;12.87;10.37;;;10.10;83.30;;;;;;5033450;28;20489;-68
2021/04/10 05:21:02;;;;;;;11.70;10.70;;;10.10;83.30;;;;;;5033338;28;20470;-68
2021/04/10 05:23:28;;;;;;;11.90;10.80;;;10.20;83.10;;;;;;5033402;28;20450;-68
2021/04/10 05:25:55;;;;;;;12.07;10.97;;;10.10;83.00;;;;;;5033305;28;20849;-68
2021/04/10 05:28:22;;;;;;;12.00;10.90;;;10.20;82.90;;;;;;5033533;28;20457;-68
2021/04/10 05:30:48;;;;;;;12.20;11.00;;;10.20;83.10;;;;;;5033274;28;20824;-68
2021/04/10 05:33:15;;;;;;;11.13;10.23;;;10.10;83.20;;;;;;5033370;28;20427;-68
2021/04/10 05:35:41;;;;;;;14.00;12.60;;;10.10;83.60;;;;;;5033293;28;20442;-68
2021/04/10 05:38:08;;;;;;;12.93;11.77;;;10.20;83.80;;;;;;5033689;28;20458;-68
2021/04/10 05:40:34;;;;;;;16.33;12.17;;;10.20;84.00;;;;;;5036910;28;20466;-68
2021/04/10 05:43:01;;;;;;;15.63;13.30;;;10.10;84.30;;;;;;5037216;28;20456;-68
2021/04/10 05:45:28;;;;;;;14.73;13.40;;;10.10;84.40;;;;;;5036982;28;20954;-68
2021/04/10 05:47:54;;;;;;;16.17;14.63;;;10.10;84.30;;;;;;5037124;28;20473;-68
2021/04/10 05:50:20;;;;;;;15.07;13.77;;;10.10;84.40;;;;;;5036986;28;20863;-68
2021/04/10 05:52:47;;;;;;;14.50;13.20;;;10.10;84.60;;;;;;5037046;28;20450;-68
2021/04/10 05:55:14;;;;;;;17.50;12.73;;;10.10;84.90;;;;;;5036976;28;20446;-68
2021/04/10 05:57:41;;;;;;;15.57;13.70;;;10.10;85.20;;;;;;5036988;28;20446;-68
2021/04/10 06:00:09;;;;;;;16.93;15.20;;;10.20;85.70;;;;;;5036804;28;20537;-68
2021/04/10 06:02:36;;;;;;;16.63;14.90;;;10.20;86.00;;;;;;5036912;28;20434;-68
2021/04/10 06:05:02;;;;;;;15.27;13.80;;;10.30;86.40;;;;;;5036548;28;20445;-68
2021/04/10 06:07:28;;;;;;;17.97;16.20;;;10.30;86.60;;;;;;5036809;28;20449;-68
2021/04/10 06:09:55;;;;;;;20.10;16.87;;;10.30;86.70;;;;;;5036436;28;20501;-68
2021/04/10 06:12:21;;;;;;;22.40;17.27;;;10.40;87.00;;;;;;5036667;28;20446;-68
2021/04/10 06:14:47;;;;;;;19.80;17.70;;;10.40;87.20;;;;;;5037123;28;20454;-68
2021/04/10 06:17:16;;;;;;;19.90;17.27;;;10.50;87.40;;;;;;5036578;28;20449;-68
2021/04/10 06:19:42;;;;;;;19.40;17.50;;;10.50;87.20;;;;;;5036896;28;20430;-68
2021/04/10 06:22:09;;;;;;;21.10;16.50;;;10.60;86.90;;;;;;5036498;28;20446;-71
2021/04/10 06:24:35;;;;;;;23.63;20.07;;;10.60;86.70;;;;;;5036251;28;20435;-70
2021/04/10 06:27:01;;;;;;;21.57;16.73;;;10.70;86.70;;;;;;5036492;28;20465;-70
2021/04/10 06:29:28;;;;;;;20.47;18.30;;;10.70;86.70;;;;;;5036285;28;20470;-70
2021/04/10 06:31:54;;;;;;;20.83;18.67;;;10.80;86.40;;;;;;5036355;28;20853;-70
2021/04/10 06:34:21;;;;;;;19.03;17.17;;;10.80;86.00;;;;;;5035959;28;20450;-71
2021/04/10 06:36:47;;;;;;;26.97;20.60;;;10.90;86.00;;;;;;5036267;28;20450;-67
2021/04/10 06:39:13;;;;;;;21.03;19.00;;;10.90;86.10;;;;;;5036186;28;20561;-66
2021/04/10 06:41:40;;;;;;;22.37;19.60;;;10.90;87.00;;;;;;5036090;28;20501;-67
2021/04/10 06:44:07;;;;;;;20.33;18.37;;;11.00;86.20;;;;;;5035769;28;20929;-67
2021/04/10 06:46:34;;;;;;;22.00;19.70;;;11.10;86.20;;;;;;5036059;28;20474;-67
2021/04/10 06:49:02;;;;;;;22.47;20.20;;;11.10;85.80;;;;;;5035887;28;20482;-67
2021/04/10 06:51:30;;;;;;;21.67;19.13;;;11.20;86.10;;;;;;5035156;28;20482;-67
2021/04/10 06:53:58;;;;;;;24.13;21.57;;;11.30;86.50;;;;;;5035883;28;20442;-66
2021/04/10 06:56:28;;;;;;;25.17;22.70;;;11.30;86.50;;;;;;5035765;28;20936;-67
2021/04/10 06:58:59;;;;;;;24.60;22.00;;;11.40;86.40;;;;;;5035689;28;20477;-67
2021/04/10 07:01:27;;;;;;;24.03;21.57;;;11.50;86.30;;;;;;5035370;28;20884;-67
2021/04/10 07:03:53;;;;;;;28.20;21.03;;;11.60;86.00;;;;;;5035598;28;20959;-67
2021/04/10 07:06:21;;;;;;;23.70;20.50;;;11.60;85.30;;;;;;5035623;28;20446;-67
2021/04/10 07:08:48;;;;;;;23.17;20.80;;;11.80;84.70;;;;;;5035571;28;20458;-67
2021/04/10 07:11:15;;;;;;;23.00;20.30;;;11.90;84.10;;;;;;5035164;28;20489;-66
2021/04/10 07:13:42;;;;;;;22.67;17.40;;;12.00;83.70;;;;;;5035819;28;20446;-66
2021/04/10 07:16:08;;;;;;;17.40;15.60;;;12.10;83.40;;;;;;5035214;28;20905;-66
2021/04/10 07:18:35;;;;;;;22.90;20.30;;;12.30;82.80;;;;;;5035161;28;20936;-66
2021/04/10 07:21:16;;;;;;;19.23;16.80;;;12.50;82.00;;;;;;5035372;28;20470;-66
2021/04/10 07:23:48;;;;;;;21.90;19.60;;;12.60;82.10;;;;;;5035356;28;20450;-66
2021/04/10 07:26:17;;;;;;;21.23;17.70;;;12.70;81.30;;;;;;5035259;28;20491;-66
2021/04/10 07:28:43;;;;;;;24.43;20.93;;;12.80;80.70;;;;;;5034913;28;20951;-67
2021/04/10 07:31:11;;;;;;;20.67;18.53;;;12.90;80.20;;;;;;5035073;28;20466;-67
2021/04/10 07:33:39;;;;;;;25.83;20.97;;;12.90;80.20;;;;;;5035167;28;20454;-67
2021/04/10 07:36:07;;;;;;;23.40;21.10;;;13.00;80.50;;;;;;5035164;28;20453;-67
2021/04/10 07:38:36;;;;;;;26.10;21.77;;;13.10;80.10;;;;;;5035689;28;20450;-67
2021/04/10 07:41:05;;;;;;;20.00;18.03;;;13.20;80.00;;;;;;5035028;28;20466;-67
2021/04/10 07:43:36;;;;;;;23.07;20.77;;;13.30;79.20;;;;;;5034967;28;20454;-67
2021/04/10 07:46:20;;;;;;;22.67;20.30;;;13.40;78.70;;;;;;5034959;28;20453;-67
2021/04/10 07:49:03;;;;;;;23.33;20.93;;;13.50;78.60;;;;;;5034852;28;20446;-67
2021/04/10 07:51:32;;;;;;;21.03;18.83;;;13.60;78.00;;;;;;5034493;28;20520;-67
2021/04/10 07:53:59;;;;;;;21.37;19.17;;;13.60;76.80;;;;;;5035045;28;20446;-67
2021/04/10 07:56:27;;;;;;;18.83;16.97;;;13.70;76.70;;;;;;5034715;28;20446;-68
2021/04/10 07:59:01;;;;;;;20.30;17.20;;;13.90;76.40;;;;;;5034681;28;20438;-66
2021/04/10 08:01:28;;;;;;;20.37;17.37;;;14.00;75.80;;;;;;5034048;28;20462;-67
2021/04/10 08:03:57;;;;;;;18.50;16.60;;;14.20;75.40;;;;;;5034148;28;20866;-67
2021/04/10 08:06:23;;;;;;;21.33;19.13;;;14.40;74.70;;;;;;5034608;28;20431;-67
2021/04/10 08:08:53;;;;;;;19.30;17.27;;;14.50;74.30;;;;;;5034399;28;20442;-67
2021/04/10 08:11:35;;;;;;;24.67;16.87;;;14.60;73.40;;;;;;5034265;28;20485;-67
2021/04/10 08:14:04;;;;;;;18.60;16.33;;;14.80;72.70;;;;;;5034150;28;20904;-67
2021/04/10 08:16:30;;;;;;;19.13;17.03;;;14.80;71.70;;;;;;5034353;28;20438;-67
2021/04/10 08:18:58;;;;;;;19.17;17.07;;;14.90;71.10;;;;;;5034347;28;20854;-67
2021/04/10 08:21:42;;;;;;;19.77;17.87;;;15.00;70.40;;;;;;5034214;28;20800;-67
2021/04/10 08:24:41;;;;;;;17.33;15.60;;;15.10;70.10;;;;;;5034275;28;20426;-68
2021/04/10 08:27:15;;;;;;;18.63;16.77;;;15.30;69.80;;;;;;4973872;28;20943;-67
2021/04/10 08:29:43;;;;;;;20.33;18.33;;;15.30;68.70;;;;;;5025802;28;21007;-68
2021/04/10 08:32:10;;;;;;;21.17;18.70;;;15.40;68.40;;;;;;5034071;28;20431;-68
2021/04/10 08:34:37;;;;;;;22.60;19.70;;;15.50;68.60;;;;;;5034334;28;20430;-68
2021/04/10 08:37:05;;;;;;;21.37;19.30;;;15.50;68.80;;;;;;5034088;28;20529;-68
2021/04/10 08:39:34;;;;;;;20.07;17.73;;;15.70;68.40;;;;;;5034466;28;20442;-69
2021/04/10 08:42:03;;;;;;;19.67;17.63;;;15.70;67.70;;;;;;5033855;28;20957;-68
2021/04/10 08:44:32;;;;;;;19.73;17.83;;;15.70;67.20;;;;;;5033688;28;20493;-68
2021/04/10 08:46:59;;;;;;;17.93;16.23;;;15.80;67.30;;;;;;5033837;28;20518;-68
2021/04/10 08:49:28;;;;;;;18.63;16.90;;;15.90;67.20;;;;;;5033746;28;20505;-68
2021/04/10 08:52:01;;;;;;;20.30;18.30;;;15.90;67.40;;;;;;5033688;28;20466;-69
2021/04/10 08:54:31;;;;;;;23.77;21.37;;;16.00;67.30;;;;;;5033756;28;20466;-68
2021/04/10 08:56:57;;;;;;;19.27;17.43;;;16.10;66.80;;;;;;5033720;28;20446;-68
2021/04/10 08:59:24;;;;;;;19.20;17.17;;;16.10;66.10;;;;;;5033629;28;20453;-68
2021/04/10 09:02:09;;;;;;;18.27;16.57;;;16.20;65.70;;;;;;5033595;28;20900;-68
2021/04/10 09:05:09;;;;;;;19.77;17.70;;;16.20;64.90;;;;;;5033567;28;20444;-69
2021/04/10 09:08:06;;;;;;;18.30;16.50;;;16.40;65.20;;;;;;5033564;28;20430;-69
2021/04/10 09:10:51;;;;;;;18.30;16.27;;;16.50;64.60;;;;;;5033417;28;20577;-69
2021/04/10 09:13:41;;;;;;;18.13;16.40;;;16.60;63.80;;;;;;5033188;28;20439;-68
2021/04/10 09:16:34;;;;;;;19.60;17.67;;;16.70;63.50;;;;;;5033529;28;20431;-69
2021/04/10 09:19:12;;;;;;;18.07;16.37;;;16.70;63.50;;;;;;5033490;28;20514;-68
2021/04/10 09:21:41;;;;;;;17.43;15.83;;;16.70;63.40;;;;;;5033372;28;20881;-69
2021/04/10 09:24:18;;;;;;;16.67;15.17;;;16.80;63.20;;;;;;5033606;28;20458;-69
2021/04/10 09:26:55;;;;;;;17.90;16.30;;;16.70;62.60;;;;;;5033207;28;20453;-68
2021/04/10 09:29:22;;;;;;;17.80;16.10;;;16.70;62.50;;;;;;5033195;28;20466;-68
2021/04/10 09:31:49;;;;;;;17.50;15.90;;;16.60;63.00;;;;;;5033226;28;20474;-67
2021/04/10 09:34:53;;;;;;;18.80;17.03;;;16.50;63.10;;;;;;5033447;28;20457;-67
2021/04/10 09:37:59;;;;;;;18.43;16.60;;;16.50;63.60;;;;;;5033353;28;20430;-68
2021/04/10 09:40:47;;;;;;;19.53;17.53;;;16.40;63.80;;;;;;5032934;28;20462;-67
2021/04/10 09:43:14;;;;;;;18.90;17.03;;;16.40;64.20;;;;;;5033222;28;20477;-68
2021/04/10 09:45:41;;;;;;;16.93;15.50;;;16.30;64.40;;;;;;5033728;28;20438;-67
2021/04/10 09:48:28;;;;;;;19.97;17.70;;;16.30;64.80;;;;;;5033190;28;20431;-67
2021/04/10 09:51:04;;;;;;;20.37;18.40;;;16.20;65.30;;;;;;5032750;28;20572;-67
2021/04/10 09:53:43;;;;;;;21.30;19.37;;;16.20;65.60;;;;;;5033187;28;20437;-67
2021/04/10 09:56:13;;;;;;;21.33;19.13;;;16.20;65.60;;;;;;5017371;28;20435;-67
2021/04/10 09:58:50;;;;;;;20.50;18.60;;;16.10;65.60;;;;;;5033127;28;20431;-67
2021/04/10 10:01:20;;;;;;;21.90;20.07;;;16.10;66.10;;;;;;5033017;28;20527;-68
2021/04/10 10:03:47;;;;;;;21.33;19.07;;;16.10;66.40;;;;;;5033077;28;20496;-67
2021/04/10 10:06:18;;;;;;;23.40;21.20;;;16.10;66.90;;;;;;5033069;28;20447;-67
2021/04/10 10:08:45;;;;;;;20.80;18.70;;;16.10;67.10;;;;;;5033336;28;20423;-67
2021/04/10 10:11:13;;;;;;;23.17;20.97;;;16.20;67.30;;;;;;5032781;28;20475;-67
2021/04/10 10:13:40;;;;;;;22.67;20.50;;;16.30;67.10;;;;;;5032911;28;20469;-67
2021/04/10 10:16:07;;;;;;;21.93;19.90;;;16.40;67.20;;;;;;5033152;28;20449;-67
2021/04/10 10:18:34;;;;;;;21.63;19.70;;;16.40;66.70;;;;;;5032691;28;20426;-67
2021/04/10 10:21:03;;;;;;;21.93;19.83;;;16.50;66.50;;;;;;5032796;28;20461;-67
2021/04/10 10:23:32;;;;;;;23.87;21.50;;;16.50;66.20;;;;;;5032768;28;20427;-67
2021/04/10 10:26:05;;;;;;;23.33;21.23;;;16.50;66.00;;;;;;5034151;28;20936;-67
2021/04/10 10:28:32;;;;;;;26.37;24.13;;;16.50;66.10;;;;;;5036107;28;20935;-68
2021/04/10 10:31:04;;;;;;;26.47;23.73;;;16.50;66.30;;;;;;5036196;28;20540;-67
2021/04/10 10:33:31;;;;;;;26.60;24.17;;;16.50;66.20;;;;;;5036477;28;20427;-67
2021/04/10 10:35:57;;;;;;;24.53;22.37;;;16.40;66.30;;;;;;5036144;28;20437;-67
2021/04/10 10:38:30;;;;;;;24.77;22.40;;;16.30;66.40;;;;;;5036230;28;20431;-68
2021/04/10 10:40:56;;;;;;;23.70;21.50;;;16.30;66.40;;;;;;5036078;28;20474;-68
2021/04/10 10:43:24;;;;;;;27.50;24.90;;;16.30;66.50;;;;;;5036026;28;20920;-68
2021/04/10 10:45:52;;;;;;;26.20;23.70;;;16.20;66.60;;;;;;5036130;28;20485;-68
2021/04/10 10:48:24;;;;;;;25.03;22.33;;;16.30;66.90;;;;;;5036029;28;20446;-67
2021/04/10 10:50:52;;;;;;;27.67;25.17;;;16.20;67.10;;;;;;5035942;28;20490;-67
2021/04/10 10:53:20;;;;;;;26.73;24.23;;;16.20;67.30;;;;;;5035758;28;20438;-67
2021/04/10 10:55:58;;;;;;;26.07;23.57;;;16.30;67.50;;;;;;5035849;28;21038;-66
2021/04/10 10:58:25;;;;;;;27.77;25.13;;;16.30;67.50;;;;;;5035982;28;20454;-67
2021/04/10 11:00:52;;;;;;;28.33;25.50;;;16.30;67.50;;;;;;5035830;28;20998;-67
2021/04/10 11:03:20;;;;;;;27.17;24.80;;;16.30;67.40;;;;;;5035754;28;20454;-67
2021/04/10 11:05:48;;;;;;;27.93;25.37;;;16.40;68.10;;;;;;5035668;28;20786;-67
2021/04/10 11:08:16;;;;;;;27.57;25.07;;;16.40;68.40;;;;;;5035727;28;20451;-67
2021/04/10 11:10:43;;;;;;;30.67;27.90;;;16.40;68.00;;;;;;5035039;28;20522;-67
2021/04/10 11:13:11;;;;;;;32.37;29.33;;;16.40;67.50;;;;;;5035554;28;20490;-66
2021/04/10 11:15:38;;;;;;;35.83;32.50;;;16.40;67.50;;;;;;5035780;28;20456;-66
2021/04/10 11:18:06;;;;;;;35.90;32.10;;;16.30;67.40;;;;;;5035563;28;20446;-66
2021/04/10 11:20:33;;;;;;;32.17;29.27;;;16.20;67.40;;;;;;5035450;28;20462;-67
2021/04/10 11:23:07;;;;;;;32.70;29.67;;;16.20;67.60;;;;;;5035415;28;20446;-67
2021/04/10 11:25:53;;;;;;;32.53;29.70;;;16.10;67.80;;;;;;5035421;28;20434;-67
2021/04/10 11:28:27;;;;;;;33.50;30.50;;;16.00;68.30;;;;;;5035252;28;20450;-67
2021/04/10 11:31:07;;;;;;;29.93;27.27;;;16.00;69.20;;;;;;5035072;28;20491;-67
2021/04/10 11:33:36;;;;;;;30.80;27.83;;;15.90;69.40;;;;;;5035819;28;20508;-67
2021/04/10 11:36:03;;;;;;;34.80;31.47;;;15.80;69.60;;;;;;5034637;28;20455;-67
2021/04/10 11:38:29;;;;;;;30.80;28.00;;;15.70;70.20;;;;;;5035133;28;20461;-69
2021/04/10 11:40:55;;;;;;;30.10;27.37;;;15.60;71.00;;;;;;5034616;28;21035;-68
2021/04/10 11:43:22;;;;;;;32.60;29.50;;;15.50;71.20;;;;;;5034957;28;20458;-68
2021/04/10 11:45:49;;;;;;;32.30;29.20;;;15.40;71.60;;;;;;5035011;28;20491;-68
2021/04/10 11:48:17;;;;;;;29.83;27.07;;;15.30;72.40;;;;;;5034959;28;20504;-69
2021/04/10 11:50:47;;;;;;;29.93;27.23;;;15.20;72.80;;;;;;5034955;28;20518;-69
2021/04/10 11:53:15;;;;;;;28.97;26.10;;;15.10;73.00;;;;;;5034795;28;20496;-69
2021/04/10 11:55:42;;;;;;;27.87;25.20;;;15.20;73.50;;;;;;5034825;28;20447;-69
2021/04/10 11:58:08;;;;;;;27.17;24.77;;;15.30;73.90;;;;;;5034784;28;20496;-69
2021/04/10 12:00:34;;;;;;;23.40;21.30;;;15.40;74.40;;;;;;5034377;28;21038;-69
2021/04/10 12:03:09;;;;;;;22.33;20.37;;;15.40;74.10;;;;;;5034713;28;20481;-69
2021/04/10 12:05:39;;;;;;;22.13;20.17;;;15.50;73.80;;;;;;5034603;28;20449;-69
2021/04/10 12:08:08;;;;;;;22.13;20.13;;;15.60;73.60;;;;;;5034591;28;20417;-69
2021/04/10 12:10:36;;;;;;;20.77;18.90;;;15.60;73.70;;;;;;5034645;28;20494;-69
2021/04/10 12:13:03;;;;;;;22.20;20.20;;;15.60;73.40;;;;;;5034984;28;20477;-69
2021/04/10 12:15:30;;;;;;;21.93;19.93;;;15.50;73.30;;;;;;5061383;22;20482;-84
2021/04/10 12:17:57;;;;;;;22.97;20.67;;;15.40;73.10;;;;;;5046948;28;20415;-85
2021/04/10 12:20:24;;;;;;;21.13;19.30;;;15.20;73.10;;;;;;5046979;28;20469;-85
2021/04/10 12:22:51;;;;;;;20.60;18.70;;;15.20;73.20;;;;;;5046912;28;20439;-85
2021/04/10 12:25:18;;;;;;;19.37;17.67;;;15.10;73.40;;;;;;5046594;28;20456;-86
2021/04/10 12:27:44;;;;;;;18.90;17.10;;;15.00;73.90;;;;;;5045559;28;20443;-86
2021/04/10 12:30:12;;;;;;;18.13;16.23;;;15.00;74.10;;;;;;5045099;28;20537;-86
2021/04/10 12:32:38;;;;;;;17.60;16.00;;;15.00;74.20;;;;;;5044736;28;20443;-86
2021/04/10 12:35:06;;;;;;;17.47;15.87;;;15.00;74.20;;;;;;5045511;28;20450;-86
2021/04/10 12:37:32;;;;;;;16.33;14.73;;;15.00;74.00;;;;;;5043339;28;20453;-86